Wetterdaten: Woche 25.10.10 - 31.10.10 (KW43)
Datum Zeit Temp. A. Feuchte A. Luftdruck Regen Wind Richtung Taupunkt Windchill Windben
25.10.2010 00:00 7,6 C 84 % 1013,0 hPa 0,0 l/m 0,0 km/h N 5,1 C 7,6 C 0,8 km/h
25.10.2010 01:00 7,4 C 84 % 1012,8 hPa 0,0 l/m 0,2 km/h N 4,9 C 7,4 C 2,8 km/h
25.10.2010 02:00 7,5 C 84 % 1012,6 hPa 0,0 l/m 0,0 km/h N 5,0 C 7,5 C 0,8 km/h
25.10.2010 03:00 7,3 C 84 % 1012,4 hPa 0,0 l/m 0,3 km/h NW 4,8 C 7,3 C 3,6 km/h
25.10.2010 04:00 7,3 C 84 % 1012,7 hPa 0,0 l/m 1,2 km/h NW 4,7 C 7,3 C 5,2 km/h
25.10.2010 05:00 7,1 C 85 % 1013,0 hPa 0,0 l/m 1,5 km/h NW 4,7 C 7,1 C 5,6 km/h
25.10.2010 06:00 6,9 C 85 % 1013,2 hPa 0,0 l/m 1,8 km/h N-NW 4,5 C 6,9 C 6,0 km/h
25.10.2010 07:00 6,7 C 85 % 1013,4 hPa 0,0 l/m 1,3 km/h N-NW 4,3 C 6,7 C 4,4 km/h
25.10.2010 08:00 6,6 C 85 % 1014,2 hPa 0,0 l/m 0,6 km/h N-NW 4,3 C 6,6 C 3,6 km/h
25.10.2010 09:00 6,6 C 85 % 1014,7 hPa 0,3 l/m 1,6 km/h N-NW 4,2 C 6,6 C 5,6 km/h
25.10.2010 10:00 6,6 C 85 % 1015,0 hPa 0,3 l/m 2,0 km/h N-NW 4,3 C 6,6 C 5,6 km/h
25.10.2010 11:00 6,6 C 85 % 1015,1 hPa 0,3 l/m 3,9 km/h NW 4,3 C 6,6 C 9,6 km/h
25.10.2010 12:00 6,6 C 85 % 1015,5 hPa 0,3 l/m 4,4 km/h N-NW 4,2 C 6,6 C 11,7 km/h
25.10.2010 13:00 6,8 C 85 % 1015,7 hPa 0,3 l/m 4,8 km/h NW 4,5 C 6,8 C 10,1 km/h
25.10.2010 14:00 7,2 C 85 % 1016,1 hPa 0,3 l/m 5,3 km/h N-NW 4,8 C 6,9 C 12,5 km/h
25.10.2010 15:00 6,9 C 83 % 1016,7 hPa 0,0 l/m 7,5 km/h N-NO 4,3 C 6,0 C 18,1 km/h
25.10.2010 16:00 6,8 C 82 % 1017,5 hPa 0,0 l/m 5,5 km/h NW 4,0 C 6,8 C 14,1 km/h
25.10.2010 17:00 6,3 C 83 % 1017,9 hPa 0,3 l/m 4,8 km/h N-NW 3,6 C 6,3 C 12,1 km/h
25.10.2010 18:00 6,1 C 83 % 1018,5 hPa 0,0 l/m 3,6 km/h NW 3,4 C 6,1 C 9,3 km/h
25.10.2010 19:00 6,1 C 79 % 1019,1 hPa 0,0 l/m 5,5 km/h NW 2,7 C 6,1 C 15,3 km/h
25.10.2010 20:00 6,1 C 75 % 1019,7 hPa 0,0 l/m 6,6 km/h NW 1,9 C 5,7 C 17,3 km/h
25.10.2010 21:00 6,0 C 74 % 1020,2 hPa 0,0 l/m 6,7 km/h NW 1,7 C 5,7 C 18,9 km/h
25.10.2010 22:00 5,8 C 75 % 1020,9 hPa 0,0 l/m 5,6 km/h NW 1,7 C 5,8 C 18,9 km/h
25.10.2010 23:00 5,7 C 75 % 1021,4 hPa 0,0 l/m 6,9 km/h N-NW 1,6 C 5,3 C 16,5 km/h
26.10.2010 00:00 5,6 C 77 % 1021,7 hPa 0,0 l/m 8,9 km/h N-NW 1,8 C 3,6 C 19,7 km/h
26.10.2010 01:00 5,2 C 79 % 1021,7 hPa 0,0 l/m 5,2 km/h NW 1,8 C 5,0 C 16,1 km/h
26.10.2010 02:00 5,3 C 80 % 1022,2 hPa 0,0 l/m 5,1 km/h N-NW 2,1 C 5,2 C 14,5 km/h
26.10.2010 03:00 5,1 C 81 % 1022,4 hPa 0,0 l/m 4,4 km/h NW 2,1 C 5,1 C 17,7 km/h
26.10.2010 04:00 5,0 C 80 % 1022,5 hPa 0,0 l/m 5,3 km/h NW 1,9 C 5,0 C 17,3 km/h
26.10.2010 05:00 5,2 C 79 % 1022,7 hPa 0,0 l/m 5,7 km/h NW 1,8 C 5,2 C 16,9 km/h
26.10.2010 06:00 5,2 C 79 % 1023,0 hPa 0,0 l/m 5,1 km/h NW 1,8 C 5,2 C 18,5 km/h
26.10.2010 07:00 5,3 C 77 % 1023,4 hPa 0,0 l/m 4,9 km/h NW 1,6 C 5,3 C 15,3 km/h
26.10.2010 08:00 5,3 C 78 % 1024,2 hPa 0,0 l/m 6,0 km/h NW 1,8 C 4,9 C 19,7 km/h
26.10.2010 09:00 5,3 C 78 % 1025,1 hPa 0,0 l/m 5,8 km/h N-NW 1,8 C 5,2 C 18,9 km/h
26.10.2010 10:00 5,8 C 78 % 1025,3 hPa 0,0 l/m 5,6 km/h NW 2,2 C 5,7 C 20,5 km/h
26.10.2010 11:00 6,5 C 75 % 1025,3 hPa 0,0 l/m 6,0 km/h N-NW 2,3 C 6,3 C 16,5 km/h
26.10.2010 12:00 6,8 C 72 % 1025,8 hPa 0,0 l/m 6,0 km/h NW 2,2 C 6,5 C 21,7 km/h
26.10.2010 13:00 7,1 C 72 % 1025,2 hPa 0,0 l/m 5,8 km/h NW 2,3 C 7,0 C 22,1 km/h
26.10.2010 14:00 7,6 C 71 % 1025,4 hPa 0,0 l/m 5,7 km/h N-NW 2,7 C 7,6 C 18,9 km/h
26.10.2010 15:00 7,9 C 70 % 1025,7 hPa 0,0 l/m 7,4 km/h NW 2,7 C 6,9 C 20,1 km/h
26.10.2010 16:00 7,7 C 68 % 1026,0 hPa 0,0 l/m 5,3 km/h NW 2,1 C 7,7 C 18,5 km/h
26.10.2010 17:00 6,8 C 71 % 1026,7 hPa 0,0 l/m 3,0 km/h NW 1,9 C 6,8 C 10,1 km/h
26.10.2010 18:00 5,9 C 74 % 1027,1 hPa 0,0 l/m 2,0 km/h NW 1,7 C 5,9 C 9,2 km/h
26.10.2010 19:00 5,9 C 74 % 1027,4 hPa 0,0 l/m 1,5 km/h W-SW 1,6 C 5,9 C 9,6 km/h
26.10.2010 20:00 5,8 C 75 % 1027,9 hPa 0,0 l/m 2,3 km/h N-NW 1,7 C 5,8 C 8,4 km/h
26.10.2010 21:00 5,4 C 78 % 1028,5 hPa 0,0 l/m 1,6 km/h N-NW 1,7 C 5,4 C 5,6 km/h
26.10.2010 22:00 5,2 C 78 % 1028,8 hPa 0,0 l/m 0,7 km/h N-NW 1,6 C 5,2 C 4,0 km/h
26.10.2010 23:00 4,7 C 77 % 1028,9 hPa 0,0 l/m 2,1 km/h W-NW 1,0 C 4,7 C 6,4 km/h
27.10.2010 00:00 4,2 C 77 % 1029,1 hPa 0,0 l/m 1,2 km/h NW 0,5 C 4,2 C 4,8 km/h
27.10.2010 01:00 3,8 C 76 % 1029,3 hPa 0,0 l/m 1,2 km/h NW -0,1 C 3,8 C 4,0 km/h
27.10.2010 02:00 3,5 C 75 % 1029,4 hPa 0,0 l/m 0,3 km/h N -0,6 C 3,5 C 2,8 km/h
27.10.2010 03:00 3,4 C 74 % 1029,5 hPa 0,0 l/m 0,4 km/h N -0,8 C 3,4 C 2,8 km/h
27.10.2010 04:00 3,4 C 74 % 1029,6 hPa 0,0 l/m 0,2 km/h N -0,8 C 3,4 C 1,2 km/h
27.10.2010 05:00 2,7 C 75 % 1029,8 hPa 0,0 l/m 0,0 km/h N -1,2 C 2,7 C 0,4 km/h
27.10.2010 06:00 1,2 C 77 % 1029,9 hPa 0,0 l/m 0,0 km/h N -2,4 C 1,2 C 0,0 km/h
27.10.2010 07:00 0,1 C 81 % 1030,1 hPa 0,0 l/m 0,0 km/h N -2,8 C 0,1 C 1,6 km/h
27.10.2010 08:00 0,4 C 83 % 1030,2 hPa 0,0 l/m 0,2 km/h N -2,1 C 0,4 C 3,2 km/h
27.10.2010 09:00 2,0 C 84 % 1030,4 hPa 0,0 l/m 0,3 km/h N -0,3 C 2,0 C 2,8 km/h
27.10.2010 10:00 4,2 C 82 % 1030,1 hPa 0,0 l/m 0,6 km/h N 1,3 C 4,2 C 3,2 km/h
27.10.2010 11:00 6,3 C 70 % 1029,9 hPa 0,0 l/m 0,6 km/h N 1,2 C 6,3 C 4,4 km/h
27.10.2010 12:00 8,0 C 61 % 1029,5 hPa 0,0 l/m 0,8 km/h N 0,9 C 8,0 C 4,4 km/h
27.10.2010 13:00 9,1 C 57 % 1028,7 hPa 0,0 l/m 1,5 km/h NO 1,1 C 9,1 C 6,4 km/h
27.10.2010 14:00 9,1 C 57 % 1028,0 hPa 0,0 l/m 1,4 km/h NO 1,1 C 9,1 C 6,4 km/h
27.10.2010 15:00 9,0 C 56 % 1027,6 hPa 0,0 l/m 1,6 km/h N-NO 0,7 C 9,0 C 6,8 km/h
27.10.2010 16:00 8,6 C 57 % 1027,4 hPa 0,0 l/m 1,2 km/h NO 0,6 C 8,6 C 4,0 km/h
27.10.2010 17:00 7,7 C 60 % 1027,4 hPa 0,0 l/m 0,2 km/h N 0,3 C 7,7 C 1,2 km/h
27.10.2010 18:00 5,8 C 68 % 1028,0 hPa 0,0 l/m 0,0 km/h N 0,2 C 5,8 C 0,0 km/h
27.10.2010 19:00 3,4 C 75 % 1028,3 hPa 0,0 l/m 0,0 km/h N -0,5 C 3,4 C 0,0 km/h
27.10.2010 20:00 2,3 C 79 % 1028,1 hPa 0,0 l/m 0,0 km/h N -0,9 C 2,3 C 0,4 km/h
27.10.2010 21:00 1,7 C 82 % 1028,1 hPa 0,0 l/m 0,1 km/h N -1,1 C 1,7 C 2,0 km/h
27.10.2010 22:00 1,5 C 83 % 1028,0 hPa 0,0 l/m 0,1 km/h N -1,2 C 1,5 C 2,0 km/h
27.10.2010 23:00 1,1 C 83 % 1027,6 hPa 0,0 l/m 0,0 km/h N -1,4 C 1,1 C 1,2 km/h
28.10.2010 00:00 0,5 C 83 % 1027,4 hPa 0,0 l/m 0,0 km/h N -2,0 C 0,5 C 0,0 km/h
28.10.2010 01:00 -0,2 C 84 % 1027,1 hPa 0,0 l/m 0,1 km/h N -2,6 C -0,2 C 1,6 km/h
28.10.2010 02:00 0,0 C 84 % 1026,8 hPa 0,0 l/m 0,1 km/h N -2,3 C 0,0 C 1,6 km/h
28.10.2010 03:00 -0,3 C 85 % 1026,6 hPa 0,0 l/m 0,0 km/h N -2,5 C -0,3 C 0,4 km/h
28.10.2010 04:00 -0,9 C 85 % 1026,4 hPa 0,0 l/m 0,0 km/h N -3,1 C -0,9 C 0,0 km/h
28.10.2010 05:00 -1,5 C 85 % 1026,3 hPa 0,0 l/m 0,0 km/h N -3,7 C -1,5 C 0,0 km/h
28.10.2010 06:00 -1,9 C 85 % 1026,3 hPa 0,0 l/m 0,0 km/h N -4,1 C -1,9 C 0,0 km/h
28.10.2010 07:00 -2,3 C 85 % 1026,4 hPa 0,0 l/m 0,0 km/h N -4,4 C -2,3 C 0,0 km/h
28.10.2010 08:00 -2,3 C 85 % 1026,6 hPa 0,0 l/m 0,0 km/h N -4,5 C -2,3 C 0,0 km/h
28.10.2010 09:00 -0,6 C 85 % 1026,6 hPa 0,0 l/m 0,0 km/h N -2,8 C -0,6 C 0,0 km/h
28.10.2010 10:00 1,9 C 85 % 1026,5 hPa 0,0 l/m 0,0 km/h N -0,4 C 1,9 C 0,8 km/h
28.10.2010 11:00 3,5 C 85 % 1026,4 hPa 0,0 l/m 0,0 km/h N 1,1 C 3,5 C 1,6 km/h
28.10.2010 12:00 5,7 C 78 % 1025,9 hPa 0,0 l/m 0,2 km/h N 2,2 C 5,7 C 1,6 km/h
28.10.2010 13:00 7,6 C 70 % 1025,3 hPa 0,0 l/m 0,3 km/h N 2,4 C 7,6 C 2,8 km/h
28.10.2010 14:00 8,9 C 63 % 1024,7 hPa 0,0 l/m 0,1 km/h N 2,2 C 8,9 C 2,0 km/h
28.10.2010 15:00 9,4 C 61 % 1024,1 hPa 0,0 l/m 0,1 km/h N 2,3 C 9,4 C 1,6 km/h
28.10.2010 16:00 9,5 C 64 % 1024,1 hPa 0,0 l/m 0,0 km/h N 2,9 C 9,5 C 1,2 km/h
28.10.2010 17:00 9,0 C 66 % 1024,0 hPa 0,0 l/m 0,0 km/h N 3,0 C 9,0 C 0,0 km/h
28.10.2010 18:00 7,3 C 71 % 1024,4 hPa 0,0 l/m 0,0 km/h N 2,4 C 7,3 C 0,4 km/h
28.10.2010 19:00 5,5 C 77 % 1024,6 hPa 0,0 l/m 0,0 km/h N 1,8 C 5,5 C 0,4 km/h
28.10.2010 20:00 4,7 C 80 % 1024,6 hPa 0,0 l/m 0,0 km/h N 1,5 C 4,7 C 0,0 km/h
28.10.2010 21:00 4,4 C 82 % 1024,3 hPa 0,0 l/m 0,0 km/h N 1,6 C 4,4 C 0,0 km/h
28.10.2010 22:00 4,4 C 83 % 1024,3 hPa 0,0 l/m 0,0 km/h N 1,8 C 4,4 C 0,0 km/h
28.10.2010 23:00 3,9 C 84 % 1024,2 hPa 0,0 l/m 0,0 km/h N 1,4 C 3,9 C 0,0 km/h
29.10.2010 00:00 3,0 C 84 % 1024,2 hPa 0,0 l/m 0,0 km/h N 0,5 C 3,0 C 0,0 km/h
29.10.2010 01:00 1,9 C 84 % 1024,0 hPa 0,0 l/m 0,0 km/h N -0,5 C 1,9 C 0,0 km/h
29.10.2010 02:00 1,3 C 85 % 1023,7 hPa 0,0 l/m 0,0 km/h N -0,9 C 1,3 C 0,0 km/h
29.10.2010 03:00 0,8 C 85 % 1023,6 hPa 0,0 l/m 0,0 km/h N -1,4 C 0,8 C 0,4 km/h
29.10.2010 04:00 0,2 C 85 % 1023,4 hPa 0,0 l/m 0,0 km/h N -2,0 C 0,2 C 0,0 km/h
29.10.2010 05:00 -0,2 C 85 % 1023,2 hPa 0,0 l/m 0,0 km/h N -2,4 C -0,2 C 0,0 km/h
29.10.2010 06:00 -0,4 C 85 % 1023,1 hPa 0,0 l/m 0,0 km/h N -2,7 C -0,4 C 0,0 km/h
29.10.2010 07:00 -1,0 C 85 % 1022,9 hPa 0,0 l/m 0,0 km/h N -3,2 C -1,0 C 0,0 km/h
29.10.2010 08:00 -1,1 C 85 % 1023,3 hPa 0,0 l/m 0,0 km/h N -3,2 C -1,1 C 0,0 km/h
29.10.2010 09:00 0,6 C 85 % 1023,3 hPa 0,0 l/m 0,1 km/h N -1,7 C 0,6 C 0,8 km/h
29.10.2010 10:00 3,0 C 85 % 1022,8 hPa 0,0 l/m 0,2 km/h N 0,7 C 3,0 C 2,4 km/h
29.10.2010 11:00 4,7 C 85 % 1022,4 hPa 0,0 l/m 0,3 km/h N 2,4 C 4,7 C 2,4 km/h
29.10.2010 12:00 6,7 C 82 % 1022,0 hPa 0,0 l/m 0,5 km/h N 3,8 C 6,7 C 3,6 km/h
29.10.2010 13:00 8,6 C 74 % 1021,3 hPa 0,0 l/m 0,8 km/h O-NO 4,2 C 8,6 C 4,4 km/h
29.10.2010 14:00 9,4 C 72 % 1020,5 hPa 0,0 l/m 0,5 km/h N 4,5 C 9,4 C 4,4 km/h
29.10.2010 15:00 10,4 C 68 % 1019,7 hPa 0,0 l/m 0,7 km/h O 4,8 C 10,4 C 3,2 km/h
29.10.2010 16:00 11,2 C 63 % 1018,9 hPa 0,0 l/m 0,7 km/h O 4,4 C 11,2 C 4,8 km/h
29.10.2010 17:00 11,1 C 58 % 1018,3 hPa 0,0 l/m 0,4 km/h N 3,2 C 11,1 C 3,6 km/h
29.10.2010 18:00 9,7 C 60 % 1018,0 hPa 0,0 l/m 0,1 km/h N 2,2 C 9,7 C 2,8 km/h
29.10.2010 19:00 8,5 C 64 % 1017,7 hPa 0,0 l/m 0,1 km/h N 2,0 C 8,5 C 2,4 km/h
29.10.2010 20:00 7,5 C 67 % 1017,3 hPa 0,0 l/m 0,0 km/h N 1,8 C 7,5 C 2,0 km/h
29.10.2010 21:00 6,5 C 70 % 1016,9 hPa 0,0 l/m 0,0 km/h N 1,5 C 6,5 C 0,8 km/h
29.10.2010 22:00 5,9 C 72 % 1016,3 hPa 0,0 l/m 0,0 km/h N 1,2 C 5,9 C 1,6 km/h
29.10.2010 23:00 5,6 C 71 % 1015,8 hPa 0,0 l/m 0,0 km/h N 0,8 C 5,6 C 0,8 km/h
30.10.2010 00:00 5,6 C 70 % 1015,0 hPa 0,0 l/m 0,5 km/h S 0,5 C 5,6 C 4,0 km/h
30.10.2010 01:00 5,0 C 71 % 1014,6 hPa 0,0 l/m 0,0 km/h N 0,2 C 5,0 C 1,2 km/h
30.10.2010 02:00 5,2 C 73 % 1013,9 hPa 0,0 l/m 0,3 km/h N 0,7 C 5,2 C 4,8 km/h
30.10.2010 03:00 5,1 C 74 % 1013,4 hPa 0,0 l/m 0,2 km/h N 0,7 C 5,1 C 4,0 km/h
30.10.2010 04:00 4,3 C 76 % 1013,0 hPa 0,0 l/m 0,1 km/h N 0,4 C 4,3 C 2,8 km/h
30.10.2010 05:00 3,8 C 78 % 1012,9 hPa 0,0 l/m 0,4 km/h N 0,4 C 3,8 C 6,4 km/h
30.10.2010 06:00 3,4 C 80 % 1012,8 hPa 0,0 l/m 0,3 km/h N 0,3 C 3,4 C 4,0 km/h
30.10.2010 07:00 3,0 C 82 % 1012,9 hPa 0,0 l/m 0,3 km/h N 0,1 C 3,0 C 5,6 km/h
30.10.2010 08:00 2,8 C 83 % 1013,3 hPa 0,0 l/m 0,4 km/h N 0,2 C 2,8 C 4,0 km/h
30.10.2010 09:00 3,5 C 84 % 1013,4 hPa 0,0 l/m 0,3 km/h N 1,0 C 3,5 C 4,8 km/h
30.10.2010 10:00 4,7 C 82 % 1013,4 hPa 0,0 l/m 0,9 km/h O-SO 1,8 C 4,7 C 6,4 km/h
30.10.2010 11:00 6,2 C 78 % 1013,2 hPa 0,0 l/m 1,2 km/h O 2,6 C 6,2 C 5,6 km/h
30.10.2010 12:00 8,3 C 72 % 1012,8 hPa 0,0 l/m 0,8 km/h O-NO 3,6 C 8,3 C 4,8 km/h
30.10.2010 13:00 10,1 C 66 % 1012,4 hPa 0,0 l/m 1,1 km/h O 4,1 C 10,1 C 7,2 km/h
30.10.2010 14:00 11,3 C 64 % 1011,7 hPa 0,0 l/m 0,7 km/h N 4,7 C 11,3 C 5,2 km/h
30.10.2010 15:00 12,5 C 61 % 1011,5 hPa 0,0 l/m 0,9 km/h O-SO 5,3 C 12,5 C 6,0 km/h
30.10.2010 16:00 13,1 C 61 % 1011,3 hPa 0,0 l/m 0,8 km/h O-NO 5,8 C 13,1 C 4,0 km/h
30.10.2010 17:00 12,2 C 64 % 1011,0 hPa 0,0 l/m 0,2 km/h N 5,6 C 12,2 C 1,6 km/h
30.10.2010 18:00 9,7 C 69 % 1011,2 hPa 0,0 l/m 0,0 km/h N 4,2 C 9,7 C 0,0 km/h
30.10.2010 19:00 6,9 C 78 % 1011,5 hPa 0,0 l/m 0,0 km/h N 3,3 C 6,9 C 0,8 km/h
30.10.2010 20:00 5,6 C 81 % 1011,6 hPa 0,0 l/m 0,0 km/h N 2,6 C 5,6 C 1,6 km/h
30.10.2010 21:00 4,6 C 83 % 1011,4 hPa 0,0 l/m 0,0 km/h N 1,9 C 4,6 C 0,0 km/h
30.10.2010 22:00 4,3 C 84 % 1011,2 hPa 0,0 l/m 0,1 km/h N 1,9 C 4,3 C 1,2 km/h
30.10.2010 23:00 3,4 C 84 % 1010,7 hPa 0,0 l/m 0,0 km/h N 1,0 C 3,4 C 0,0 km/h
31.10.2010 00:00 2,4 C 85 % 1010,2 hPa 0,0 l/m 0,0 km/h N 0,1 C 2,4 C 0,0 km/h
31.10.2010 01:00 1,5 C 85 % 1009,8 hPa 0,0 l/m 0,0 km/h N -0,7 C 1,5 C 0,0 km/h
31.10.2010 02:00 0,7 C 85 % 1009,5 hPa 0,0 l/m 0,0 km/h N -1,5 C 0,7 C 0,2 km/h
31.10.2010 03:00 0,2 C 85 % 1009,2 hPa 0,0 l/m 0,0 km/h N -2,0 C 0,2 C 0,4 km/h
31.10.2010 04:00 0,0 C 86 % 1009,1 hPa 0,0 l/m 0,0 km/h N -2,1 C 0,0 C 0,4 km/h
31.10.2010 05:00 -0,0 C 86 % 1009,2 hPa 0,0 l/m 0,0 km/h N -2,1 C -0,0 C 0,4 km/h
31.10.2010 06:00 0,3 C 86 % 1009,6 hPa 0,0 l/m 0,0 km/h N -1,8 C 0,3 C 1,2 km/h
31.10.2010 07:00 1,8 C 85 % 1009,9 hPa 0,0 l/m 0,1 km/h N -0,5 C 1,8 C 2,0 km/h
31.10.2010 08:00 6,1 C 83 % 1009,5 hPa 0,0 l/m 0,3 km/h N 3,4 C 6,1 C 3,6 km/h
31.10.2010 09:00 10,4 C 84 % 1009,2 hPa 0,0 l/m 0,3 km/h N 7,7 C 10,4 C 2,0 km/h
31.10.2010 10:00 13,3 C 70 % 1008,9 hPa 0,0 l/m 3,8 km/h W 7,9 C 13,1 C 12,5 km/h
31.10.2010 11:00 14,8 C 64 % 1009,2 hPa 0,0 l/m 6,1 km/h S-SO 8,1 C 14,4 C 20,1 km/h
31.10.2010 12:00 14,6 C 67 % 1009,3 hPa 0,0 l/m 4,6 km/h S 8,5 C 14,6 C 20,9 km/h
31.10.2010 13:00 14,9 C 67 % 1009,1 hPa 0,0 l/m 3,4 km/h S-SO 8,8 C 14,9 C 16,1 km/h
31.10.2010 14:00 15,2 C 67 % 1009,0 hPa 0,0 l/m 3,6 km/h S-SW 9,0 C 15,2 C 14,1 km/h
31.10.2010 15:00 15,0 C 67 % 1009,0 hPa 0,0 l/m 4,0 km/h S 8,9 C 15,0 C 14,5 km/h
31.10.2010 16:00 14,9 C 67 % 1009,5 hPa 0,0 l/m 5,8 km/h SO 8,8 C 14,8 C 23,3 km/h
31.10.2010 17:00 14,5 C 68 % 1010,5 hPa 0,0 l/m 1,6 km/h NO 8,7 C 14,5 C 8,8 km/h
31.10.2010 18:00 13,6 C 71 % 1010,5 hPa 0,0 l/m 0,6 km/h O 8,3 C 13,6 C 8,0 km/h
31.10.2010 19:00 13,5 C 70 % 1010,3 hPa 0,0 l/m 2,4 km/h S-SO 8,2 C 13,5 C 8,4 km/h
31.10.2010 20:00 13,3 C 69 % 1010,3 hPa 0,0 l/m 1,6 km/h S-SO 7,7 C 13,3 C 10,1 km/h
31.10.2010 21:00 13,1 C 69 % 1010,6 hPa 0,0 l/m 0,5 km/h N 7,5 C 13,1 C 4,8 km/h
31.10.2010 22:00 12,3 C 70 % 1010,7 hPa 0,0 l/m 0,4 km/h N 7,0 C 12,3 C 3,6 km/h
31.10.2010 23:00 11,5 C 72 % 1010,8 hPa 0,0 l/m 0,1 km/h N 6,6 C 11,5 C 2,8 km/h
Min-Datum _ 28.10.10 27.10.10 31.10.10 - 25.10.10 - 28.10.10 28.10.10 25.10.10
_ Min-Zeit 08:15 13:00 10:46 - 00:00 - 08:00 08:00 00:15
Minimum _ -2,5 C 56 % 1008,7 hPa - 0,0 km/h - -4,7 C -2,5 C 0,0 km/h
Max-Datum _ 31.10.10 29.10.10 27.10.10 25.10.10 26.10.10 - 31.10.10 31.10.10 31.10.10
_ Max-Zeit 14:30 07:30 09:00 09:30 00:15 - 14:45 14:30 16:45
Maximum _ 15,3 C 86 % 1030,5 hPa 0,3 l/m 9,9 km/h
N-NW
- 9,1 C 15,3 C 29,0 km/h
S
Durchschnitt _ 5,8 C 77 % 1019,8 hPa #1,8 l/m 1,5 km/h NW 1,9 C 5,7 C 5,8 km/h